createdAt,value
2017-08-12T00:01:07.236Z,14.80
2017-08-12T00:03:33.532Z,15.00
2017-08-12T00:06:00.568Z,15.00
2017-08-12T00:08:27.586Z,14.90
2017-08-12T00:10:53.887Z,14.80
2017-08-12T00:13:20.157Z,15.00
2017-08-12T00:15:46.439Z,15.10
2017-08-12T00:18:12.707Z,15.00
2017-08-12T00:20:39.007Z,14.90
2017-08-12T00:23:05.281Z,14.80
2017-08-12T00:25:31.559Z,14.90
2017-08-12T00:27:57.832Z,14.80
2017-08-12T00:30:24.097Z,14.70
2017-08-12T00:32:51.121Z,14.60
2017-08-12T00:35:18.154Z,14.70
2017-08-12T00:37:44.470Z,14.60
2017-08-12T00:40:10.776Z,14.80
2017-08-12T00:42:37.060Z,14.90
2017-08-12T00:45:03.346Z,14.90
2017-08-12T00:47:29.631Z,14.80
2017-08-12T00:49:56.667Z,14.90
2017-08-12T00:52:23.700Z,14.80
2017-08-12T00:54:50.554Z,14.70
2017-08-12T00:57:16.845Z,14.90
2017-08-12T00:59:43.125Z,14.80
2017-08-12T01:02:10.136Z,14.80
2017-08-12T01:04:36.458Z,14.80
2017-08-12T01:07:02.744Z,14.90
2017-08-12T01:09:29.742Z,15.00
2017-08-12T01:11:56.007Z,14.90
2017-08-12T01:14:23.059Z,15.00
2017-08-12T01:16:50.269Z,14.90
2017-08-12T01:19:17.506Z,14.90
2017-08-12T01:21:43.773Z,14.80
2017-08-12T01:24:10.373Z,14.70
2017-08-12T01:26:36.637Z,14.70
2017-08-12T01:29:02.957Z,14.70
2017-08-12T01:31:29.216Z,14.80
2017-08-12T01:33:55.485Z,14.90
2017-08-12T01:36:21.796Z,14.70
2017-08-12T01:38:48.049Z,14.70
2017-08-12T01:41:14.316Z,14.70
2017-08-12T01:43:40.605Z,14.60
2017-08-12T01:46:06.895Z,14.60
2017-08-12T01:48:33.173Z,14.60
2017-08-12T01:50:59.452Z,14.70
2017-08-12T01:53:26.448Z,14.60
2017-08-12T01:55:52.724Z,14.60
2017-08-12T01:58:19.730Z,14.50
2017-08-12T02:00:46.015Z,14.40
2017-08-12T02:03:12.294Z,14.40
2017-08-12T02:05:38.564Z,14.40
2017-08-12T02:08:05.394Z,14.50
2017-08-12T02:10:32.540Z,14.60
2017-08-12T02:12:58.952Z,14.50
2017-08-12T02:15:25.255Z,14.50
2017-08-12T02:17:51.531Z,14.50
2017-08-12T02:20:18.540Z,14.40
2017-08-12T02:22:44.811Z,14.30
2017-08-12T02:25:11.821Z,14.50
2017-08-12T02:27:38.095Z,14.40
2017-08-12T02:30:04.359Z,14.50
2017-08-12T02:32:30.650Z,14.40
2017-08-12T02:34:57.656Z,14.30
2017-08-12T02:37:23.931Z,14.20
2017-08-12T02:39:50.937Z,14.20
2017-08-12T02:42:17.196Z,14.10
2017-08-12T02:44:44.216Z,14.20
2017-08-12T02:47:10.461Z,14.20
2017-08-12T02:49:36.733Z,14.20
2017-08-12T02:52:03.010Z,14.10
2017-08-12T02:54:29.301Z,14.10
2017-08-12T02:56:55.568Z,14.10
2017-08-12T02:59:21.837Z,14.10
2017-08-12T03:01:48.090Z,13.90
2017-08-12T03:04:14.364Z,13.90
2017-08-12T03:06:41.378Z,13.80
2017-08-12T03:09:07.656Z,13.80
2017-08-12T03:11:34.648Z,13.90
2017-08-12T03:14:00.904Z,13.80
2017-08-12T03:16:27.168Z,13.90
2017-08-12T03:18:53.437Z,13.90
2017-08-12T03:21:19.715Z,13.80
2017-08-12T03:23:46.719Z,13.80
2017-08-12T03:26:13.002Z,13.70
2017-08-12T03:28:39.282Z,13.90
2017-08-12T03:31:05.563Z,13.70
2017-08-12T03:33:31.845Z,13.70
2017-08-12T03:35:58.124Z,13.80
2017-08-12T03:38:24.376Z,13.80
2017-08-12T03:40:50.637Z,13.80
2017-08-12T03:43:16.912Z,13.70
2017-08-12T03:45:43.225Z,13.70
2017-08-12T03:48:10.217Z,13.80
2017-08-12T03:50:36.472Z,13.80
2017-08-12T03:53:02.790Z,13.70
2017-08-12T03:55:29.069Z,13.80
2017-08-12T03:57:55.325Z,13.80
2017-08-12T04:00:21.592Z,13.80
2017-08-12T04:02:48.626Z,13.80
2017-08-12T04:05:15.944Z,13.80
2017-08-12T04:07:42.227Z,13.70
2017-08-12T04:10:09.254Z,13.80
2017-08-12T04:12:35.569Z,13.70
2017-08-12T04:15:01.858Z,13.90
2017-08-12T04:17:28.144Z,13.90
2017-08-12T04:19:54.435Z,13.90
2017-08-12T04:22:20.703Z,13.90
2017-08-12T04:24:47.010Z,14.00
2017-08-12T04:27:13.282Z,13.90
2017-08-12T04:29:40.297Z,13.70
2017-08-12T04:32:06.561Z,13.70
2017-08-12T04:34:33.583Z,14.00
2017-08-12T04:36:59.848Z,13.90
2017-08-12T04:39:26.121Z,13.90
2017-08-12T04:41:52.386Z,13.90
2017-08-12T04:44:18.655Z,13.90
2017-08-12T04:46:44.920Z,13.90
2017-08-12T04:49:11.204Z,14.00
2017-08-12T04:51:37.473Z,14.00
2017-08-12T04:54:03.777Z,14.10
2017-08-12T04:56:30.042Z,14.00
2017-08-12T04:58:56.317Z,14.20
2017-08-12T05:01:22.640Z,14.20
2017-08-12T05:03:48.905Z,14.20
2017-08-12T05:06:15.174Z,14.10
2017-08-12T05:08:41.439Z,14.00
2017-08-12T05:11:07.728Z,14.20
2017-08-12T05:13:34.775Z,14.20
2017-08-12T05:16:01.041Z,14.10
2017-08-12T05:18:27.300Z,14.10
2017-08-12T05:20:53.578Z,14.10
2017-08-12T05:23:19.876Z,14.30
2017-08-12T05:25:46.196Z,14.30
2017-08-12T05:28:12.526Z,14.30
2017-08-12T05:30:38.776Z,14.30
2017-08-12T05:33:05.041Z,14.30
2017-08-12T05:35:31.316Z,14.50
2017-08-12T05:37:57.594Z,14.50
2017-08-12T05:40:23.865Z,14.60
2017-08-12T05:42:50.148Z,14.60
2017-08-12T05:45:17.158Z,14.60
2017-08-12T05:47:43.511Z,14.60
2017-08-12T05:50:09.802Z,14.60
2017-08-12T05:52:36.077Z,14.60
2017-08-12T05:55:03.147Z,14.70
2017-08-12T05:57:29.572Z,14.70
2017-08-12T05:59:55.896Z,14.60
2017-08-12T06:02:22.946Z,14.70
2017-08-12T06:04:49.354Z,14.60
2017-08-12T06:07:16.412Z,14.50
2017-08-12T06:09:43.599Z,14.50
2017-08-12T06:12:09.883Z,14.50
2017-08-12T06:14:36.150Z,14.60
2017-08-12T06:17:02.471Z,14.60
2017-08-12T06:19:28.829Z,14.60
2017-08-12T06:21:55.089Z,14.60
2017-08-12T06:24:21.363Z,14.50
2017-08-12T06:26:47.629Z,14.50
2017-08-12T06:29:13.915Z,14.60
2017-08-12T06:31:40.178Z,14.80
2017-08-12T06:34:06.455Z,14.90
2017-08-12T06:36:33.487Z,14.90
2017-08-12T06:38:59.761Z,14.90
2017-08-12T06:41:26.026Z,15.00
2017-08-12T06:43:52.288Z,14.90
2017-08-12T06:46:19.293Z,14.90
2017-08-12T06:48:45.568Z,14.90
2017-08-12T06:51:12.645Z,15.10
2017-08-12T06:53:38.935Z,15.00
2017-08-12T06:56:05.279Z,15.10
2017-08-12T06:58:31.571Z,15.00
2017-08-12T07:00:58.660Z,14.80
2017-08-12T07:03:25.685Z,14.80
2017-08-12T07:05:52.724Z,14.90
2017-08-12T07:08:19.054Z,14.90
2017-08-12T07:10:45.354Z,14.90
2017-08-12T07:13:11.694Z,14.80
2017-08-12T07:15:37.958Z,14.70
2017-08-12T07:18:04.227Z,14.70
2017-08-12T07:20:30.504Z,14.90
2017-08-12T07:22:56.796Z,15.00
2017-08-12T07:25:23.087Z,15.10
2017-08-12T07:27:49.358Z,14.80
2017-08-12T07:30:15.664Z,14.90
2017-08-12T07:32:41.934Z,15.00
2017-08-12T07:35:08.229Z,14.80
2017-08-12T07:37:34.574Z,15.00
2017-08-12T07:40:00.856Z,15.00
2017-08-12T07:42:27.877Z,14.90
2017-08-12T07:44:54.165Z,14.80
2017-08-12T07:47:20.412Z,15.00
2017-08-12T07:49:46.709Z,15.10
2017-08-12T07:52:12.974Z,15.20
2017-08-12T07:54:39.255Z,15.10
2017-08-12T07:57:05.532Z,15.40
2017-08-12T07:59:31.785Z,15.40
2017-08-12T08:01:58.065Z,15.50
2017-08-12T08:04:24.332Z,15.40
2017-08-12T08:06:50.687Z,15.20
2017-08-12T08:09:16.964Z,15.30
2017-08-12T08:11:43.276Z,15.10
2017-08-12T08:14:09.650Z,15.20
2017-08-12T08:16:35.976Z,15.30
2017-08-12T08:19:02.287Z,15.10
2017-08-12T08:21:28.568Z,15.20
2017-08-12T08:23:55.572Z,15.50
2017-08-12T08:26:21.831Z,15.50
2017-08-12T08:28:48.117Z,15.40
2017-08-12T08:31:14.389Z,15.50
2017-08-12T08:33:40.686Z,15.50
2017-08-12T08:36:06.953Z,15.50
2017-08-12T08:38:34.253Z,15.60
2017-08-12T08:41:00.506Z,15.50
2017-08-12T08:43:26.798Z,15.70
2017-08-12T08:45:53.067Z,15.70
2017-08-12T08:48:19.371Z,16.00
2017-08-12T08:50:45.656Z,15.90
2017-08-12T08:53:12.701Z,16.00
2017-08-12T08:55:39.716Z,15.90
2017-08-12T08:58:06.014Z,15.90
2017-08-12T09:00:32.292Z,16.10
2017-08-12T09:02:59.350Z,16.00
2017-08-12T09:05:25.636Z,15.90
2017-08-12T09:07:51.912Z,16.10
2017-08-12T09:10:25.435Z,16.30
2017-08-12T09:12:51.739Z,16.40
2017-08-12T09:15:18.743Z,16.50
2017-08-12T09:17:45.031Z,16.40
2017-08-12T09:20:11.332Z,16.50
2017-08-12T09:22:38.396Z,16.20
2017-08-12T09:25:05.419Z,16.10
2017-08-12T09:27:31.693Z,16.10
2017-08-12T09:29:58.005Z,16.30
2017-08-12T09:32:24.259Z,16.40
2017-08-12T09:34:50.544Z,16.70
2017-08-12T09:37:16.804Z,16.60
2017-08-12T09:39:43.083Z,16.80
2017-08-12T09:42:09.372Z,16.90
2017-08-12T09:44:35.660Z,16.90
2017-08-12T09:47:01.962Z,16.90
2017-08-12T09:49:28.256Z,17.00
2017-08-12T09:51:54.537Z,17.20
2017-08-12T09:54:20.824Z,17.10
2017-08-12T09:56:47.143Z,17.30
2017-08-12T09:59:13.432Z,17.30
2017-08-12T10:01:39.705Z,17.40
2017-08-12T10:04:05.988Z,17.70
2017-08-12T10:06:32.322Z,17.70
2017-08-12T10:08:59.224Z,17.50
2017-08-12T10:11:25.498Z,17.40
2017-08-12T10:13:51.803Z,17.30
2017-08-12T10:16:18.087Z,17.40
2017-08-12T10:18:44.392Z,17.50
2017-08-12T10:21:11.471Z,17.60
2017-08-12T10:23:37.762Z,17.60
2017-08-12T10:26:04.046Z,17.60
2017-08-12T10:28:30.315Z,17.60
2017-08-12T10:30:56.581Z,17.60
2017-08-12T10:33:22.877Z,18.00
2017-08-12T10:35:50.099Z,17.80
2017-08-12T10:38:16.389Z,17.90
2017-08-12T10:40:43.375Z,17.80
2017-08-12T10:43:09.661Z,17.70
2017-08-12T10:45:36.683Z,18.00
2017-08-12T10:48:02.944Z,18.00
2017-08-12T10:50:29.949Z,18.30
2017-08-12T10:52:56.208Z,18.20
2017-08-12T10:55:23.225Z,18.30
2017-08-12T10:57:49.513Z,18.30
2017-08-12T11:00:15.805Z,18.30
2017-08-12T11:02:42.825Z,18.20
2017-08-12T11:05:09.087Z,18.10
2017-08-12T11:07:36.116Z,18.60
2017-08-12T11:10:02.431Z,18.60
2017-08-12T11:12:28.697Z,18.90
2017-08-12T11:14:55.741Z,19.10
2017-08-12T11:17:22.744Z,19.00
2017-08-12T11:19:48.999Z,18.90
2017-08-12T11:22:15.303Z,18.60
2017-08-12T11:24:41.549Z,18.60
2017-08-12T11:27:07.833Z,18.90
2017-08-12T11:29:34.097Z,18.80
2017-08-12T11:32:00.386Z,19.10
2017-08-12T11:34:26.646Z,19.20
2017-08-12T11:36:52.893Z,19.40
2017-08-12T11:39:19.161Z,19.40
2017-08-12T11:41:45.449Z,19.30
2017-08-12T11:44:11.745Z,19.10
2017-08-12T11:46:38.043Z,18.90
2017-08-12T11:49:04.343Z,19.00
2017-08-12T11:51:30.614Z,19.00
2017-08-12T11:53:56.887Z,18.90
2017-08-12T11:56:23.179Z,18.60
2017-08-12T11:58:49.461Z,18.30
2017-08-12T12:01:16.516Z,18.10
2017-08-12T12:03:42.800Z,18.00
2017-08-12T12:06:10.103Z,18.30
2017-08-12T12:08:37.142Z,17.90
2017-08-12T12:11:04.238Z,17.90
2017-08-12T12:13:30.521Z,17.80
2017-08-12T12:15:56.789Z,17.70
2017-08-12T12:18:23.086Z,18.00
2017-08-12T12:20:50.120Z,18.00
2017-08-12T12:23:16.401Z,18.00
2017-08-12T12:25:42.755Z,18.00
2017-08-12T12:28:09.043Z,17.80
2017-08-12T12:30:35.347Z,17.80
2017-08-12T12:33:01.622Z,17.80
2017-08-12T12:35:27.914Z,17.60
2017-08-12T12:37:54.939Z,17.60
2017-08-12T12:40:21.216Z,17.60
2017-08-12T12:42:47.512Z,17.70
2017-08-12T12:45:14.560Z,18.00
2017-08-12T12:47:41.593Z,18.30
2017-08-12T12:50:07.896Z,18.20
2017-08-12T12:52:34.191Z,18.30
2017-08-12T12:55:00.710Z,18.20
2017-08-12T12:57:29.658Z,18.20
2017-08-12T12:59:56.428Z,18.10
2017-08-12T13:02:22.700Z,18.10
2017-08-12T13:04:49.232Z,18.20
2017-08-12T13:07:17.563Z,18.20
2017-08-12T13:09:46.122Z,18.30
2017-08-12T13:12:15.528Z,17.80
2017-08-12T13:14:42.114Z,17.80
2017-08-12T13:17:08.412Z,17.50
2017-08-12T13:19:34.694Z,17.70
2017-08-12T13:22:00.956Z,17.60
2017-08-12T13:24:27.254Z,17.40
2017-08-12T13:26:53.514Z,17.30
2017-08-12T13:29:19.798Z,17.20
2017-08-12T13:31:46.067Z,17.20
2017-08-12T13:34:12.401Z,17.40
2017-08-12T13:36:38.676Z,17.60
2017-08-12T13:39:04.983Z,17.60
2017-08-12T13:41:31.316Z,17.50
2017-08-12T13:43:57.600Z,17.50
2017-08-12T13:46:30.920Z,17.50
2017-08-12T13:48:57.982Z,17.30
2017-08-12T13:51:24.272Z,17.30
2017-08-12T13:53:50.546Z,17.50
2017-08-12T13:56:17.576Z,17.70
2017-08-12T13:58:43.858Z,17.70
2017-08-12T14:01:10.121Z,17.50
2017-08-12T14:03:36.395Z,17.50
2017-08-12T14:06:04.389Z,17.20
2017-08-12T14:08:30.749Z,17.20
2017-08-12T14:10:57.025Z,17.40
2017-08-12T14:13:23.306Z,17.40
2017-08-12T14:15:49.563Z,17.20
2017-08-12T14:18:15.832Z,17.10
2017-08-12T14:20:42.106Z,17.20
2017-08-12T14:23:09.200Z,17.10
2017-08-12T14:25:35.485Z,17.10
2017-08-12T14:28:01.771Z,17.10
2017-08-12T14:30:28.782Z,17.30
2017-08-12T14:32:55.822Z,17.10
2017-08-12T14:35:22.864Z,17.20
2017-08-12T14:37:49.180Z,17.10
2017-08-12T14:40:15.439Z,17.20
2017-08-12T14:42:42.463Z,17.40
2017-08-12T14:45:09.494Z,17.40
2017-08-12T14:47:35.764Z,17.30
2017-08-12T14:50:02.797Z,17.40
2017-08-12T14:52:29.840Z,17.30
2017-08-12T14:54:56.123Z,17.20
2017-08-12T14:57:22.398Z,17.30
2017-08-12T14:59:48.700Z,17.20
2017-08-12T15:02:15.010Z,17.20
2017-08-12T15:04:42.139Z,17.20
2017-08-12T15:07:08.412Z,17.00
2017-08-12T15:09:34.683Z,16.90
2017-08-12T15:12:01.707Z,17.10
2017-08-12T15:14:27.990Z,17.00
2017-08-12T15:16:54.268Z,17.10
2017-08-12T15:19:20.549Z,17.10
2017-08-12T15:21:46.831Z,17.30
2017-08-12T15:24:13.096Z,17.30
2017-08-12T15:26:39.401Z,17.20
2017-08-12T15:29:05.676Z,17.40
2017-08-12T15:31:31.945Z,17.30
2017-08-12T15:33:58.952Z,17.50
2017-08-12T15:36:25.229Z,17.40
2017-08-12T15:38:52.248Z,17.30
2017-08-12T15:41:18.555Z,17.30
2017-08-12T15:43:45.055Z,17.30
2017-08-12T15:46:11.443Z,17.40
2017-08-12T15:48:37.730Z,17.20
2017-08-12T15:51:04.017Z,17.10
2017-08-12T15:53:30.324Z,17.20
2017-08-12T15:55:56.590Z,17.20
2017-08-12T15:58:22.907Z,17.30
2017-08-12T16:00:49.950Z,17.30
2017-08-12T16:03:16.237Z,17.20
2017-08-12T16:05:42.541Z,17.30
2017-08-12T16:08:08.859Z,17.20
2017-08-12T16:10:35.873Z,17.00
2017-08-12T16:13:02.154Z,16.90
2017-08-12T16:15:28.431Z,16.90
2017-08-12T16:17:54.789Z,17.00
2017-08-12T16:20:21.810Z,16.80
2017-08-12T16:22:48.081Z,16.70
2017-08-12T16:25:15.096Z,16.60
2017-08-12T16:27:41.368Z,16.60
2017-08-12T16:30:07.663Z,16.60
2017-08-12T16:32:35.204Z,16.60
2017-08-12T16:35:01.483Z,16.60
2017-08-12T16:37:27.845Z,16.70
2017-08-12T16:39:54.132Z,16.60
2017-08-12T16:42:20.377Z,16.60
2017-08-12T16:44:46.637Z,16.60
2017-08-12T16:47:12.911Z,16.50
2017-08-12T16:49:39.941Z,16.60
2017-08-12T16:52:06.218Z,16.60
2017-08-12T16:54:32.651Z,16.60
2017-08-12T16:56:58.950Z,16.60
2017-08-12T16:59:25.237Z,16.70
2017-08-12T17:01:51.543Z,16.60
2017-08-12T17:04:17.819Z,16.60
2017-08-12T17:06:44.105Z,16.50
2017-08-12T17:09:10.368Z,16.50
2017-08-12T17:11:36.656Z,16.30
2017-08-12T17:14:03.635Z,16.40
2017-08-12T17:16:29.908Z,16.40
2017-08-12T17:18:56.925Z,16.30
2017-08-12T17:21:23.511Z,16.30
2017-08-12T17:23:49.775Z,16.40
2017-08-12T17:26:15.999Z,16.50
2017-08-12T17:28:42.240Z,16.40
2017-08-12T17:31:08.541Z,16.40
2017-08-12T17:33:34.794Z,16.50
2017-08-12T17:36:01.109Z,16.50
2017-08-12T17:38:27.369Z,16.60
2017-08-12T17:40:53.660Z,16.50
2017-08-12T17:43:19.905Z,16.40
2017-08-12T17:45:46.670Z,16.50
2017-08-12T17:48:13.052Z,16.30
2017-08-12T17:50:39.493Z,16.10
2017-08-12T17:53:06.246Z,16.00
2017-08-12T17:55:32.787Z,16.10
2017-08-12T17:57:59.074Z,16.20
2017-08-12T18:00:25.460Z,16.30
2017-08-12T18:02:51.949Z,16.30
2017-08-12T18:05:18.361Z,16.20
2017-08-12T18:07:44.745Z,16.30
2017-08-12T18:10:11.057Z,16.30
2017-08-12T18:12:37.386Z,16.50
2017-08-12T18:15:03.703Z,16.50
2017-08-12T18:17:30.724Z,16.70
2017-08-12T18:19:57.000Z,16.70
2017-08-12T18:22:23.263Z,16.60
2017-08-12T18:24:49.644Z,16.50
2017-08-12T18:27:16.617Z,16.60
2017-08-12T18:29:42.906Z,16.50
2017-08-12T18:32:10.075Z,16.80
2017-08-12T18:34:36.609Z,16.80
2017-08-12T18:37:02.929Z,16.80
2017-08-12T18:39:29.183Z,16.90
2017-08-12T18:41:55.495Z,16.70
2017-08-12T18:44:22.482Z,16.80
2017-08-12T18:46:48.829Z,16.70
2017-08-12T18:49:15.104Z,16.60
2017-08-12T18:51:41.338Z,16.40
2017-08-12T18:54:07.598Z,16.50
2017-08-12T18:56:33.841Z,16.40
2017-08-12T18:59:00.073Z,16.40
2017-08-12T19:01:26.325Z,16.30
2017-08-12T19:03:52.555Z,16.40
2017-08-12T19:06:19.547Z,16.40
2017-08-12T19:08:45.792Z,16.30
2017-08-12T19:11:12.045Z,16.40
2017-08-12T19:13:38.287Z,16.40
2017-08-12T19:16:05.297Z,16.40
2017-08-12T19:18:31.561Z,16.30
2017-08-12T19:20:58.538Z,16.40
2017-08-12T19:23:24.772Z,16.40
2017-08-12T19:25:51.048Z,16.50
2017-08-12T19:28:17.284Z,16.50
2017-08-12T19:30:43.615Z,16.50
2017-08-12T19:33:09.852Z,16.50
2017-08-12T19:35:36.826Z,16.30
2017-08-12T19:38:03.086Z,16.30
2017-08-12T19:40:29.324Z,16.40
2017-08-12T19:42:55.570Z,16.40
2017-08-12T19:45:21.801Z,16.30
2017-08-12T19:47:48.803Z,16.50
2017-08-12T19:50:15.032Z,16.40
2017-08-12T19:52:41.270Z,16.50
2017-08-12T19:55:07.516Z,16.50
2017-08-12T19:57:33.748Z,16.40
2017-08-12T20:00:00.302Z,16.30
2017-08-12T20:02:26.535Z,16.20
2017-08-12T20:04:53.534Z,16.20
2017-08-12T20:07:19.766Z,16.20
2017-08-12T20:09:46.013Z,16.20
2017-08-12T20:12:12.267Z,16.10
2017-08-12T20:14:39.253Z,16.10
2017-08-12T20:17:05.497Z,16.00
2017-08-12T20:19:31.779Z,16.20
2017-08-12T20:21:58.055Z,16.30
2017-08-12T20:24:24.314Z,16.10
2017-08-12T20:26:50.571Z,16.20
2017-08-12T20:29:16.811Z,16.20
2017-08-12T20:31:43.044Z,16.10
2017-08-12T20:34:09.281Z,16.20
2017-08-12T20:36:35.543Z,16.10
2017-08-12T20:39:01.773Z,16.20
2017-08-12T20:41:28.053Z,16.10
2017-08-12T20:43:54.284Z,16.20
2017-08-12T20:46:20.605Z,16.00
2017-08-12T20:48:47.756Z,15.90
2017-08-12T20:51:13.995Z,15.90
2017-08-12T20:53:40.235Z,16.00
2017-08-12T20:56:06.468Z,15.90
2017-08-12T20:58:32.699Z,16.10
2017-08-12T21:00:58.941Z,16.00
2017-08-12T21:03:25.198Z,16.00
2017-08-12T21:05:52.184Z,16.00
2017-08-12T21:08:18.427Z,16.00
2017-08-12T21:10:44.683Z,16.00
2017-08-12T21:13:11.295Z,16.00
2017-08-12T21:15:37.524Z,16.10
2017-08-12T21:18:03.837Z,16.00
2017-08-12T21:20:30.175Z,15.90
2017-08-12T21:22:56.417Z,15.90
2017-08-12T21:25:22.669Z,15.90
2017-08-12T21:27:48.903Z,15.90
2017-08-12T21:30:15.140Z,15.90
2017-08-12T21:32:42.133Z,15.80
2017-08-12T21:35:08.385Z,15.80
2017-08-12T21:37:34.610Z,15.80
2017-08-12T21:40:00.864Z,15.80
2017-08-12T21:42:27.838Z,15.70
2017-08-12T21:44:54.122Z,15.70
2017-08-12T21:47:20.375Z,15.80
2017-08-12T21:49:47.366Z,15.60
2017-08-12T21:52:20.510Z,15.60
2017-08-12T21:54:47.512Z,15.70
2017-08-12T21:57:13.741Z,15.60
2017-08-12T21:59:39.972Z,15.60
2017-08-12T22:02:06.191Z,15.60
2017-08-12T22:04:32.434Z,15.60
2017-08-12T22:06:58.684Z,15.60
2017-08-12T22:09:24.923Z,15.50
2017-08-12T22:11:51.164Z,15.60
2017-08-12T22:14:18.153Z,15.60
2017-08-12T22:16:44.405Z,15.50
2017-08-12T22:19:10.641Z,15.50
2017-08-12T22:21:36.888Z,15.50
2017-08-12T22:24:03.871Z,15.50
2017-08-12T22:26:30.104Z,15.50
2017-08-12T22:28:56.357Z,15.50
2017-08-12T22:31:22.586Z,15.50
2017-08-12T22:33:48.843Z,15.60
2017-08-12T22:36:15.096Z,15.50
2017-08-12T22:38:41.333Z,15.50
2017-08-12T22:41:07.597Z,15.70
2017-08-12T22:43:33.857Z,15.80
2017-08-12T22:46:00.091Z,15.90
2017-08-12T22:48:27.070Z,15.70
2017-08-12T22:50:53.319Z,15.70
2017-08-12T22:53:19.533Z,15.80
2017-08-12T22:55:45.765Z,15.60
2017-08-12T22:58:12.227Z,15.60
2017-08-12T23:00:38.462Z,15.70
2017-08-12T23:03:05.681Z,15.80
2017-08-12T23:05:31.919Z,15.80
2017-08-12T23:07:58.168Z,15.80
2017-08-12T23:10:24.424Z,15.80
2017-08-12T23:12:50.711Z,15.70
2017-08-12T23:15:16.947Z,15.50
2017-08-12T23:17:43.181Z,15.60
2017-08-12T23:20:09.403Z,15.70
2017-08-12T23:22:35.646Z,15.60
2017-08-12T23:25:01.875Z,15.60
2017-08-12T23:27:28.123Z,15.50
2017-08-12T23:29:55.096Z,15.50
2017-08-12T23:32:21.339Z,15.40
2017-08-12T23:34:47.572Z,15.50
2017-08-12T23:37:13.813Z,15.50
2017-08-12T23:39:40.025Z,15.40
2017-08-12T23:42:06.284Z,15.40
2017-08-12T23:44:32.504Z,15.40
2017-08-12T23:46:58.734Z,15.60
2017-08-12T23:49:24.972Z,15.70
2017-08-12T23:51:51.209Z,15.40
2017-08-12T23:54:18.182Z,15.40
2017-08-12T23:56:44.410Z,15.40
2017-08-12T23:59:10.643Z,15.50
